Time;durP1;ratioP1;P1;durP2;ratioP2;P2;SDS_P1;SDS_P2;PMS_P1;PMS_P2;Temp;Humidity;BMP_temperature;BMP_pressure;BME280_temperature;BME280_humidity;BME280_pressure;Samples;Min_cycle;Max_cycle;Signal;HPM_P1;HPM_P2
2022/05/27 00:00:24;;;;;;;6.70;5.78;;;;;;;12.58;91.86;97702.19;5015413;28;20386;-57
2022/05/27 00:02:50;;;;;;;6.70;6.00;;;;;;;12.58;92.44;97697.88;5014867;28;20046;-57
2022/05/27 00:05:18;;;;;;;7.18;6.20;;;;;;;12.31;91.65;97645.03;5014999;28;20482;-57
2022/05/27 00:07:44;;;;;;;7.18;5.82;;;;;;;12.68;91.47;97694.69;5014836;28;20026;-58
2022/05/27 00:10:11;;;;;;;7.50;6.60;;;;;;;12.64;91.67;97693.19;5014865;28;20040;-57
2022/05/27 00:12:36;;;;;;;8.77;5.93;;;;;;;12.63;92.11;97692.38;5015053;28;20022;-59
2022/05/27 00:15:03;;;;;;;7.57;5.20;;;;;;;12.63;91.47;97691.53;5014706;28;20021;-57
2022/05/27 00:17:29;;;;;;;6.03;5.20;;;;;;;12.64;91.56;97696.66;5014680;28;20049;-57
2022/05/27 00:19:54;;;;;;;7.38;5.60;;;;;;;12.61;90.39;97702.00;5014933;28;20471;-58
2022/05/27 00:22:20;;;;;;;6.95;5.55;;;;;;;12.55;91.08;97681.63;5014533;28;20034;-58
2022/05/27 00:24:45;;;;;;;6.78;6.13;;;;;;;12.57;91.18;97697.97;5014667;28;20037;-58
2022/05/27 00:27:11;;;;;;;6.63;5.70;;;;;;;12.56;90.64;97686.72;5014496;28;20026;-58
2022/05/27 00:29:38;;;;;;;6.20;5.60;;;;;;;12.65;90.64;97694.88;5014695;28;20045;-58
2022/05/27 00:32:05;;;;;;;7.45;5.75;;;;;;;12.54;90.66;97682.53;5014616;28;20101;-57
2022/05/27 00:34:31;;;;;;;6.35;5.20;;;;;;;12.64;91.04;97685.41;5014437;28;20030;-57
2022/05/27 00:36:57;;;;;;;6.78;5.45;;;;;;;12.68;90.29;97692.09;5014670;28;20030;-57
2022/05/27 00:39:23;;;;;;;7.85;5.13;;;;;;;12.43;90.55;97658.09;5014212;28;20022;-57
2022/05/27 00:41:49;;;;;;;5.63;4.90;;;;;;;12.68;89.93;97692.09;5014513;28;20037;-57
2022/05/27 00:44:14;;;;;;;6.63;5.15;;;;;;;12.61;91.14;97691.63;5013769;28;20375;-57
2022/05/27 00:46:43;;;;;;;7.15;4.80;;;;;;;12.66;90.63;97699.97;5013995;28;20018;-58
2022/05/27 00:49:13;;;;;;;4.88;4.38;;;;;;;12.57;90.31;97685.81;5014430;28;20022;-58
2022/05/27 00:51:50;;;;;;;5.00;4.50;;;;;;;12.50;90.46;97689.72;5014374;28;20028;-58
2022/05/27 00:54:23;;;;;;;5.35;4.60;;;;;;;12.25;90.23;97647.06;5014087;28;20037;-57
2022/05/27 00:56:57;;;;;;;5.05;4.47;;;;;;;12.18;91.35;97639.75;5014394;28;20529;-57
2022/05/27 01:00:04;;;;;;;6.30;4.82;;;;;;;12.55;90.82;97698.03;5014137;28;20034;-59
2022/05/27 01:02:30;;;;;;;4.22;3.50;;;;;;;12.39;90.25;97686.94;5011875;28;20042;-58
2022/05/27 01:04:59;;;;;;;3.90;3.53;;;;;;;12.16;89.75;97644.22;5014177;28;20054;-58
2022/05/27 01:07:24;;;;;;;4.63;3.42;;;;;;;12.50;90.68;97688.84;5013515;28;20045;-58
2022/05/27 01:09:51;;;;;;;5.75;3.88;;;;;;;12.48;91.16;97691.53;5013305;28;20466;-57
2022/05/27 01:12:26;;;;;;;4.00;3.08;;;;;;;12.46;90.06;97690.81;5013939;28;20026;-57
2022/05/27 01:15:36;;;;;;;3.75;3.25;;;;;;;12.39;90.28;97689.53;5013615;28;20025;-58
2022/05/27 01:20:18;;;;;;;3.15;2.85;;;;;;;12.37;89.69;97696.56;5013316;28;20112;-57
2022/05/27 01:21:19;;;;;;;3.65;3.03;;;;;;;12.36;90.46;97692.31;5013654;28;20038;-57
2022/05/27 01:24:00;;;;;;;6.10;3.38;;;;;;;12.40;89.82;97699.00;5013787;28;20021;-56
2022/05/27 01:26:40;;;;;;;4.45;3.10;;;;;;;12.33;90.03;97692.50;5013282;28;20148;-57
2022/05/27 01:29:16;;;;;;;2.90;2.50;;;;;;;12.32;90.88;97691.66;5013679;28;20036;-57
2022/05/27 01:31:52;;;;;;;3.00;2.42;;;;;;;12.28;90.02;97692.78;5012328;28;20398;-57
2022/05/27 01:34:52;;;;;;;3.70;2.45;;;;;;;12.23;89.03;97682.69;5013536;28;20025;-57
2022/05/27 01:37:30;;;;;;;5.63;2.80;;;;;;;12.33;88.96;97697.69;5013553;28;20034;-57
2022/05/27 01:40:11;;;;;;;4.65;2.70;;;;;;;11.84;90.18;97642.63;5012239;28;20403;-57
2022/05/27 01:42:53;;;;;;;3.58;2.30;;;;;;;12.16;89.40;97704.72;4992475;28;20030;-57
2022/05/27 01:45:26;;;;;;;;;;;;;;;12.11;88.60;97701.56;5011660;28;20037;-58
2022/05/27 01:48:13;;;;;;;4.57;2.20;;;;;;;12.18;89.17;97702.03;5013110;28;19996;-57
2022/05/27 01:50:51;;;;;;;3.38;2.35;;;;;;;12.04;88.21;97703.72;5013140;28;20022;-57
2022/05/27 01:53:35;;;;;;;3.72;2.38;;;;;;;12.10;87.20;97702.50;5013422;28;20414;-57
2022/05/27 01:56:23;;;;;;;3.15;2.10;;;;;;;12.03;88.76;97691.66;5012233;28;20030;-57
2022/05/27 01:59:05;;;;;;;1.98;1.65;;;;;;;11.62;87.87;97637.84;5013051;28;20506;-57
2022/05/27 02:01:36;;;;;;;3.22;1.70;;;;;;;12.03;87.94;97693.44;5011733;28;20033;-57
2022/05/27 02:04:19;;;;;;;2.95;2.05;;;;;;;12.06;88.72;97703.63;5013006;28;20077;-57
2022/05/27 02:06:50;;;;;;;2.13;1.65;;;;;;;11.94;89.08;97701.75;5013000;28;20037;-57
2022/05/27 02:09:20;;;;;;;2.47;1.52;;;;;;;12.02;88.79;97705.56;5013372;28;20041;-57
2022/05/27 02:11:49;;;;;;;1.88;1.40;;;;;;;11.66;88.17;97646.31;5013091;28;20407;-57
2022/05/27 02:14:26;;;;;;;2.25;1.42;;;;;;;11.99;88.50;97694.53;5012904;28;20475;-57
2022/05/27 02:17:00;;;;;;;1.92;1.50;;;;;;;11.77;88.29;97661.22;5012890;28;20037;-57
2022/05/27 02:19:52;;;;;;;1.88;1.38;;;;;;;12.04;88.55;97702.88;5012842;28;20422;-57
2022/05/27 02:22:29;;;;;;;1.63;1.35;;;;;;;11.80;87.79;97664.47;5012835;28;20390;-58
2022/05/27 02:25:18;;;;;;;1.50;1.40;;;;;;;11.79;88.54;97669.75;5013032;28;20030;-58
2022/05/27 02:28:10;;;;;;;1.98;1.60;;;;;;;12.04;88.47;97714.09;4993068;28;20518;-58
2022/05/27 02:30:42;;;;;;;1.70;1.60;;;;;;;11.63;88.88;97638.69;5011948;28;20538;-57
2022/05/27 02:36:02;;;;;;;2.28;1.70;;;;;;;11.63;88.42;97656.84;5012001;28;20086;-57
2022/05/27 02:38:28;;;;;;;1.60;1.50;;;;;;;11.86;89.06;97684.03;5012568;28;20148;-57
2022/05/27 02:41:31;;;;;;;1.75;1.65;;;;;;;11.98;89.38;97698.06;5012294;28;20025;-57
2022/05/27 02:44:09;;;;;;;4.88;2.38;;;;;;;12.02;89.26;97704.72;5012318;28;20022;-58
2022/05/27 02:46:55;;;;;;;1.80;1.70;;;;;;;12.03;89.58;97696.03;5012360;28;20034;-58
2022/05/27 02:49:40;;;;;;;2.35;1.88;;;;;;;12.08;89.50;97714.72;5011967;28;20033;-58
2022/05/27 02:52:46;;;;;;;3.83;2.30;;;;;;;12.10;89.61;97694.72;5011960;28;20457;-57
2022/05/27 02:55:23;;;;;;;2.38;2.17;;;;;;;11.72;89.17;97635.56;4958655;28;20504;-57
2022/05/27 02:57:51;;;;;;;2.15;1.98;;;;;;;12.05;89.34;97707.97;4992580;28;20033;-58
2022/05/27 03:00:17;;;;;;;3.80;2.22;;;;;;;12.06;89.15;97704.44;5009073;28;20022;-58
2022/05/27 03:02:43;;;;;;;3.55;2.55;;;;;;;12.07;89.69;97700.06;5012079;28;20064;-57
2022/05/27 03:05:09;;;;;;;3.00;2.80;;;;;;;12.14;89.53;97703.16;5012090;28;20029;-57
2022/05/27 03:07:56;;;;;;;2.80;2.60;;;;;;;12.15;88.83;97705.66;5015690;28;20026;-57
2022/05/27 03:10:35;;;;;;;3.10;2.80;;;;;;;12.13;89.82;97706.66;5015998;28;20765;-58
2022/05/27 03:13:06;;;;;;;3.00;2.60;;;;;;;12.10;89.45;97710.31;5015763;28;20048;-58
2022/05/27 03:15:50;;;;;;;3.65;2.85;;;;;;;11.90;89.24;97669.94;5016102;28;20030;-58
2022/05/27 03:18:34;;;;;;;3.67;2.58;;;;;;;12.15;90.40;97710.84;5015917;28;20156;-58
2022/05/27 03:21:31;;;;;;;2.85;2.50;;;;;;;11.73;89.52;97655.38;5016088;28;20091;-58
2022/05/27 03:24:21;;;;;;;3.17;2.75;;;;;;;12.16;89.51;97709.09;5015820;28;20036;-58
2022/05/27 03:26:53;;;;;;;3.30;2.92;;;;;;;12.06;89.10;97707.03;5015710;28;20037;-58
2022/05/27 03:29:33;;;;;;;4.13;3.15;;;;;;;12.07;89.15;97715.66;5015877;28;20037;-57
2022/05/27 03:32:12;;;;;;;5.13;2.97;;;;;;;11.82;88.88;97659.19;5015825;28;20083;-57
2022/05/27 03:34:44;;;;;;;4.65;3.42;;;;;;;11.84;88.24;97654.72;5015629;28;20037;-57
2022/05/27 03:37:29;;;;;;;4.80;3.33;;;;;;;12.12;88.81;97712.81;5014554;28;20021;-57
2022/05/27 03:40:20;;;;;;;6.18;3.88;;;;;;;12.06;88.26;97698.44;4995877;28;20043;-57
2022/05/27 03:42:46;;;;;;;5.00;3.67;;;;;;;12.13;87.80;97715.31;4995999;28;20108;-57
2022/05/27 03:45:19;;;;;;;5.00;3.33;;;;;;;11.79;88.10;97664.56;5011107;28;20021;-58
2022/05/27 03:47:45;;;;;;;4.20;3.40;;;;;;;12.10;88.31;97707.72;5015755;28;20022;-58
2022/05/27 03:50:15;;;;;;;5.60;3.60;;;;;;;11.88;88.71;97658.81;5015178;28;20034;-58
2022/05/27 03:52:43;;;;;;;5.45;3.65;;;;;;;12.30;88.57;97713.44;5015485;28;20053;-58
2022/05/27 03:55:13;;;;;;;3.10;2.80;;;;;;;12.31;88.67;97721.13;4998171;28;20049;-57
2022/05/27 03:57:38;;;;;;;4.15;3.30;;;;;;;12.36;89.47;97707.91;5014439;28;20125;-57
2022/05/27 04:00:06;;;;;;;5.57;3.03;;;;;;;12.06;88.72;97651.72;5015193;28;20109;-57
2022/05/27 04:02:32;;;;;;;3.95;2.78;;;;;;;12.36;89.06;97697.50;5014888;28;20044;-57
2022/05/27 04:04:57;;;;;;;5.20;3.45;;;;;;;12.38;89.16;97708.63;5015260;28;20030;-57
2022/05/27 04:07:23;;;;;;;3.75;2.72;;;;;;;12.40;87.86;97701.59;5015124;28;20022;-57
2022/05/27 04:09:48;;;;;;;2.85;2.58;;;;;;;12.35;87.43;97699.25;5015012;28;20018;-57
2022/05/27 04:12:14;;;;;;;4.53;3.03;;;;;;;12.36;87.96;97707.91;5015063;28;20028;-57
2022/05/27 04:14:40;;;;;;;4.47;2.90;;;;;;;12.42;87.44;97704.91;5014938;28;20025;-57
2022/05/27 04:19:49;;;;;;;3.15;2.95;;;;;;;12.50;88.32;97700.09;5014969;28;20030;-57
2022/05/27 04:22:15;;;;;;;3.50;3.17;;;;;;;12.55;88.56;97703.22;5014948;28;20037;-57
2022/05/27 04:24:41;;;;;;;4.40;2.90;;;;;;;12.57;87.94;97700.56;5014810;28;20430;-57
2022/05/27 04:27:15;;;;;;;3.95;3.45;;;;;;;12.57;88.20;97703.16;5014184;28;20030;-57
2022/05/27 04:29:47;;;;;;;3.70;3.00;;;;;;;12.62;88.72;97713.25;5014216;28;20491;-56
2022/05/27 04:32:13;;;;;;;3.90;3.60;;;;;;;12.55;89.43;97702.41;5014600;28;20399;-57
2022/05/27 04:34:40;;;;;;;4.22;3.63;;;;;;;12.53;89.19;97701.66;5014585;28;20022;-56
2022/05/27 04:37:07;;;;;;;3.72;3.40;;;;;;;12.62;89.01;97697.66;5014772;28;20036;-56
2022/05/27 04:39:33;;;;;;;3.65;3.35;;;;;;;12.68;88.20;97699.88;5014308;28;20030;-57
2022/05/27 04:41:58;;;;;;;3.33;3.03;;;;;;;12.65;88.79;97692.28;5014161;28;20109;-57
2022/05/27 04:44:24;;;;;;;4.10;3.70;;;;;;;12.65;89.06;97694.88;5014478;28;20041;-57
2022/05/27 04:46:50;;;;;;;3.72;2.70;;;;;;;12.62;86.88;97698.50;5014213;28;20112;-56
2022/05/27 04:52:00;;;;;;;3.30;2.92;;;;;;;12.59;86.48;97699.50;5014022;28;20075;-56
2022/05/27 04:54:27;;;;;;;3.17;2.88;;;;;;;12.63;87.41;97707.09;5013054;28;20042;-56
2022/05/27 04:56:54;;;;;;;2.92;2.63;;;;;;;12.68;87.40;97700.69;5012454;28;20390;-57
2022/05/27 04:59:20;;;;;;;3.65;2.90;;;;;;;12.64;87.68;97696.66;5013689;28;20029;-57
2022/05/27 05:01:45;;;;;;;4.65;3.15;;;;;;;12.59;87.36;97707.31;5013743;28;20419;-56
2022/05/27 05:04:11;;;;;;;3.38;3.08;;;;;;;12.56;88.98;97714.47;5013410;28;20096;-57
2022/05/27 05:06:37;;;;;;;3.83;2.45;;;;;;;12.40;86.56;97714.56;5013269;28;20033;-57
2022/05/27 05:09:02;;;;;;;2.88;2.10;;;;;;;12.54;86.78;97716.31;5013586;28;20144;-57
2022/05/27 05:11:28;;;;;;;6.35;2.70;;;;;;;12.57;86.88;97718.72;5014040;28;20159;-57
2022/05/27 05:13:53;;;;;;;4.57;2.40;;;;;;;12.57;88.61;97719.56;5013952;28;20022;-57
2022/05/27 05:16:19;;;;;;;2.38;2.17;;;;;;;12.55;87.44;97713.59;5013796;28;20037;-57
2022/05/27 05:18:44;;;;;;;2.17;1.95;;;;;;;12.57;86.23;97719.56;5013465;28;20018;-57
2022/05/27 05:21:10;;;;;;;1.60;1.50;;;;;;;12.46;86.12;97721.16;5013673;28;20034;-58
2022/05/27 05:23:35;;;;;;;2.22;1.83;;;;;;;12.58;87.64;97723.84;5013581;28;20026;-57
2022/05/27 05:26:01;;;;;;;2.42;1.80;;;;;;;12.64;87.83;97722.63;5013584;28;20037;-58
2022/05/27 05:28:27;;;;;;;1.85;1.75;;;;;;;12.57;87.20;97719.56;5012925;28;20045;-58
2022/05/27 05:30:52;;;;;;;1.35;1.25;;;;;;;12.56;85.47;97725.66;5013262;28;20037;-58
2022/05/27 05:33:18;;;;;;;2.60;1.60;;;;;;;12.52;86.52;97721.59;5013619;28;20033;-56
2022/05/27 05:35:43;;;;;;;1.85;1.65;;;;;;;12.46;85.57;97724.56;5013342;28;20030;-57
2022/05/27 05:38:09;;;;;;;6.78;2.08;;;;;;;12.56;86.39;97724.84;5013754;28;20418;-57
2022/05/27 05:40:34;;;;;;;2.13;1.80;;;;;;;12.59;87.71;97729.84;5013380;28;20022;-58
2022/05/27 05:43:01;;;;;;;2.10;1.90;;;;;;;12.58;87.37;97726.44;5013119;28;20033;-58
2022/05/27 05:45:27;;;;;;;3.42;2.28;;;;;;;12.63;87.68;97733.06;5013186;28;20022;-58
2022/05/27 05:47:52;;;;;;;3.75;2.10;;;;;;;12.51;86.47;97735.53;5013023;28;20423;-58
2022/05/27 05:50:18;;;;;;;2.53;2.33;;;;;;;12.58;86.64;97734.22;5012980;28;20022;-58
2022/05/27 05:52:44;;;;;;;3.40;2.40;;;;;;;12.63;87.70;97728.72;5012852;28;20076;-58
2022/05/27 05:55:12;;;;;;;3.60;2.50;;;;;;;12.59;87.22;97724.66;5013445;28;20390;-58
2022/05/27 05:57:41;;;;;;;2.85;2.42;;;;;;;12.63;87.31;97726.13;5012912;28;20034;-58
2022/05/27 06:00:09;;;;;;;4.30;2.70;;;;;;;12.73;86.20;97729.00;5013069;28;20030;-57
2022/05/27 06:02:35;;;;;;;4.40;2.70;;;;;;;12.70;86.74;97721.41;5012718;28;20534;-59
2022/05/27 06:05:03;;;;;;;3.00;2.70;;;;;;;12.82;85.79;97725.81;5012919;28;20121;-60
2022/05/27 06:07:31;;;;;;;2.90;2.70;;;;;;;12.73;86.36;97729.00;5012606;28;20026;-59
2022/05/27 06:09:57;;;;;;;6.78;2.55;;;;;;;12.77;85.79;97733.09;5012903;28;20022;-59
2022/05/27 06:12:24;;;;;;;4.03;3.03;;;;;;;12.55;86.46;97724.00;5012687;28;20061;-59
2022/05/27 06:14:50;;;;;;;4.65;3.05;;;;;;;12.73;84.39;97732.44;5012520;28;20033;-60
2022/05/27 06:17:17;;;;;;;3.42;2.85;;;;;;;12.81;85.40;97731.13;5012027;28;20076;-59
2022/05/27 06:19:42;;;;;;;4.95;3.08;;;;;;;12.85;85.26;97735.19;5012611;28;20388;-60
2022/05/27 06:22:08;;;;;;;3.38;2.55;;;;;;;12.89;84.85;97737.50;5012697;28;20030;-59
2022/05/27 06:24:33;;;;;;;2.92;2.72;;;;;;;12.95;85.56;97737.13;5012494;28;20037;-59
2022/05/27 06:26:59;;;;;;;3.58;2.70;;;;;;;12.94;86.51;97739.81;5012737;28;20025;-60
2022/05/27 06:34:54;;;;;;;5.57;3.42;;;;;;;12.97;83.86;97744.81;5012349;28;20030;-60
2022/05/27 06:37:21;;;;;;;3.08;2.78;;;;;;;12.85;83.06;97719.59;5012356;28;20602;-60
2022/05/27 06:39:48;;;;;;;3.78;3.40;;;;;;;12.87;83.25;97749.75;5012419;28;20026;-62
2022/05/27 06:42:15;;;;;;;3.70;2.90;;;;;;;12.64;81.30;97693.19;5011369;28;20040;-62
2022/05/27 06:44:40;;;;;;;4.50;3.33;;;;;;;13.03;84.22;97754.00;5012089;28;20072;-60
2022/05/27 06:47:08;;;;;;;3.45;3.15;;;;;;;13.04;82.69;97753.06;5012033;28;20025;-60
2022/05/27 06:49:36;;;;;;;3.92;2.97;;;;;;;12.65;82.56;97703.50;5011980;28;20033;-60
2022/05/27 06:52:02;;;;;;;4.25;3.30;;;;;;;13.04;82.88;97756.50;5012187;28;20455;-60
2022/05/27 06:54:28;;;;;;;4.95;3.20;;;;;;;13.17;80.30;97758.31;5011892;28;20053;-61
2022/05/27 06:56:53;;;;;;;5.03;2.92;;;;;;;13.28;82.61;97759.31;5011833;28;20034;-61
2022/05/27 06:59:22;;;;;;;3.70;3.08;;;;;;;13.23;81.21;97750.97;5012209;28;20029;-61
2022/05/27 07:01:48;;;;;;;4.97;2.80;;;;;;;13.38;80.03;97763.94;5011718;28;20430;-61
2022/05/27 07:04:15;;;;;;;4.20;3.35;;;;;;;13.39;81.89;97768.22;5012535;28;20053;-61
2022/05/27 07:06:43;;;;;;;6.43;3.40;;;;;;;13.39;81.80;97761.25;5011682;28;20044;-61
2022/05/27 07:09:11;;;;;;;3.88;3.17;;;;;;;13.61;82.03;97765.91;5011876;28;20022;-61
2022/05/27 07:11:42;;;;;;;5.75;3.00;;;;;;;13.54;78.05;97769.84;5006559;28;20022;-62
2022/05/27 07:14:07;;;;;;;4.90;3.30;;;;;;;13.55;79.44;97768.91;4997456;28;20030;-61
2022/05/27 07:16:33;;;;;;;6.90;3.30;;;;;;;13.61;79.77;97778.06;5011551;28;20029;-61
2022/05/27 07:18:59;;;;;;;5.80;3.67;;;;;;;13.76;79.45;97773.63;5012275;28;20026;-62
2022/05/27 07:21:25;;;;;;;8.18;3.63;;;;;;;13.61;77.13;97771.09;5011856;28;20105;-60
2022/05/27 07:23:52;;;;;;;4.15;3.03;;;;;;;13.68;79.01;97762.88;5011999;28;20025;-61
2022/05/27 07:26:19;;;;;;;3.25;2.90;;;;;;;13.75;76.47;97785.81;5011718;28;20029;-62
2022/05/27 07:28:44;;;;;;;3.55;2.78;;;;;;;13.62;78.35;97783.19;5012073;28;20037;-61
2022/05/27 07:31:10;;;;;;;2.28;2.08;;;;;;;13.58;78.37;97781.72;5011693;28;20034;-62
2022/05/27 07:33:35;;;;;;;4.25;3.03;;;;;;;13.61;77.59;97781.50;5010899;28;20025;-61
2022/05/27 07:36:01;;;;;;;6.43;2.80;;;;;;;13.79;77.80;97789.88;5011901;28;20085;-61
2022/05/27 07:38:26;;;;;;;3.88;2.47;;;;;;;13.73;76.12;97794.66;5012089;28;20038;-62
2022/05/27 07:40:52;;;;;;;4.75;2.78;;;;;;;13.58;77.29;97788.66;5011654;28;20057;-61
2022/05/27 07:43:19;;;;;;;2.85;2.53;;;;;;;13.66;76.16;97785.59;5012452;28;20034;-62
2022/05/27 07:45:46;;;;;;;3.22;2.80;;;;;;;13.78;77.86;97798.63;5012124;28;20029;-61
2022/05/27 07:48:11;;;;;;;3.22;2.63;;;;;;;13.81;75.54;97800.19;5012408;28;20113;-61
2022/05/27 07:50:38;;;;;;;3.50;2.25;;;;;;;13.96;75.73;97795.75;5011862;28;20101;-61
2022/05/27 07:53:05;;;;;;;3.25;2.25;;;;;;;13.93;74.24;97794.16;5014353;28;20026;-62
2022/05/27 07:55:31;;;;;;;5.28;2.28;;;;;;;13.96;74.56;97790.53;4996296;28;20092;-62
2022/05/27 07:57:57;;;;;;;3.05;2.25;;;;;;;14.02;73.69;97799.72;5015643;28;20029;-61
2022/05/27 08:00:25;;;;;;;5.90;2.70;;;;;;;13.54;73.21;97748.19;5015706;28;20360;-61
2022/05/27 08:02:51;;;;;;;4.85;2.55;;;;;;;13.88;72.95;97803.22;5015622;28;20479;-62
2022/05/27 08:05:20;;;;;;;8.90;2.15;;;;;;;13.89;72.18;97800.50;5016007;28;20038;-62
2022/05/27 08:07:46;;;;;;;4.05;2.22;;;;;;;13.88;72.79;97811.88;5015066;28;20049;-61
2022/05/27 08:10:15;;;;;;;3.92;2.28;;;;;;;13.62;72.50;97757.19;5015557;28;20036;-62
2022/05/27 08:12:41;;;;;;;3.25;2.28;;;;;;;14.03;72.44;97817.81;5015484;28;20101;-62
2022/05/27 08:15:08;;;;;;;6.28;2.15;;;;;;;14.02;72.65;97803.13;5015428;28;20137;-62
2022/05/27 08:17:37;;;;;;;2.72;2.20;;;;;;;14.14;73.32;97804.94;5015087;28;20021;-62
2022/05/27 08:20:05;;;;;;;3.90;2.10;;;;;;;14.14;71.19;97828.38;5015078;28;20088;-62
2022/05/27 08:22:31;;;;;;;2.90;2.28;;;;;;;13.97;73.02;97808.66;5015151;28;20530;-61
2022/05/27 08:24:56;;;;;;;2.30;2.10;;;;;;;14.06;73.44;97809.81;5015234;28;20149;-63
2022/05/27 08:27:22;;;;;;;2.75;2.35;;;;;;;14.13;74.12;97807.63;5014965;28;20033;-62
2022/05/27 08:29:48;;;;;;;3.80;3.10;;;;;;;14.05;71.59;97807.31;5015238;28;20029;-63
2022/05/27 08:32:13;;;;;;;3.75;2.47;;;;;;;14.28;73.59;97809.22;5015065;28;20025;-62
2022/05/27 08:40:21;;;;;;;4.50;2.53;;;;;;;14.22;71.30;97765.34;5015160;28;20466;-62
2022/05/27 08:43:02;;;;;;;4.00;2.83;;;;;;;14.60;71.74;97813.19;5014800;28;20105;-62
2022/05/27 08:45:49;;;;;;;4.00;2.78;;;;;;;14.56;71.65;97819.53;5014922;28;20030;-63
2022/05/27 08:48:16;;;;;;;6.53;3.05;;;;;;;14.63;72.37;97816.44;5014658;28;20030;-63
2022/05/27 08:50:57;;;;;;;4.53;2.90;;;;;;;14.43;72.55;97765.66;5014299;28;20033;-63
2022/05/27 08:53:22;;;;;;;4.18;2.60;;;;;;;14.76;70.64;97823.44;5011987;28;20113;-63
2022/05/27 09:01:33;;;;;;;5.60;3.28;;;;;;;14.43;71.17;97772.66;5014358;28;20102;-63
2022/05/27 09:04:07;;;;;;;4.40;3.08;;;;;;;14.78;71.65;97818.97;5012735;28;20054;-63
2022/05/27 09:06:44;;;;;;;3.72;2.50;;;;;;;14.77;69.27;97830.31;5010584;28;20041;-62
2022/05/27 09:09:19;;;;;;;4.07;2.70;;;;;;;14.53;69.25;97773.69;5014253;28;20112;-62
2022/05/27 09:12:12;;;;;;;3.50;2.30;;;;;;;14.88;70.86;97821.72;5013946;28;20034;-62
2022/05/27 09:14:44;;;;;;;6.55;3.03;;;;;;;14.46;70.30;97775.06;5014299;28;20467;-62
2022/05/27 09:17:15;;;;;;;4.35;3.00;;;;;;;14.30;71.42;97772.66;5013998;28;20042;-63
2022/05/27 09:19:53;;;;;;;4.45;2.67;;;;;;;14.81;70.95;97834.38;5012222;28;20390;-63
2022/05/27 09:22:27;;;;;;;4.68;3.00;;;;;;;14.77;70.26;97835.53;5013921;28;20483;-62
2022/05/27 09:25:11;;;;;;;3.67;2.50;;;;;;;14.92;68.75;97837.06;5014232;28;20036;-62
2022/05/27 09:27:49;;;;;;;2.42;2.22;;;;;;;14.80;67.87;97789.22;5013909;28;20475;-61
2022/05/27 09:30:17;;;;;;;4.28;3.10;;;;;;;15.07;68.91;97783.03;5012073;28;20044;-61
2022/05/27 09:32:58;;;;;;;3.08;2.78;;;;;;;15.08;69.69;97789.91;5013795;28;20026;-62
2022/05/27 09:35:42;;;;;;;4.72;2.85;;;;;;;15.50;69.24;97842.53;5014001;28;20026;-64
2022/05/27 09:38:14;;;;;;;3.35;2.63;;;;;;;15.53;67.77;97836.28;5029103;28;20541;-63
2022/05/27 09:40:49;;;;;;;;;;;;;;;15.56;69.58;97846.50;5014328;28;20052;-61
2022/05/27 09:43:36;;;;;;;3.67;2.85;;;;;;;15.04;68.07;97858.03;5013910;28;19909;-63
2022/05/27 09:46:05;;;;;;;7.82;3.10;;;;;;;14.87;70.06;97852.19;5013854;28;20030;-63
2022/05/27 09:48:30;;;;;;;3.75;2.50;;;;;;;14.57;71.72;97858.50;5013313;28;20034;-64
2022/05/27 09:51:01;;;;;;;3.63;2.80;;;;;;;14.42;74.88;97859.53;5021851;28;20033;-62
2022/05/27 09:53:31;;;;;;;3.60;3.27;;;;;;;14.07;75.41;97808.06;5009686;28;20550;-62
2022/05/27 09:56:04;;;;;;;3.50;3.00;;;;;;;14.58;75.91;97854.97;4996602;28;20100;-63
2022/05/27 09:58:36;;;;;;;4.80;3.47;;;;;;;14.47;75.60;97854.88;5013382;28;20133;-63
2022/05/27 10:01:23;;;;;;;3.40;3.10;;;;;;;14.43;77.45;97812.56;5013194;28;20427;-63
2022/05/27 10:04:07;;;;;;;4.88;3.47;;;;;;;14.39;76.99;97805.06;5013282;28;20048;-63
2022/05/27 10:06:36;;;;;;;5.45;3.90;;;;;;;14.68;78.02;97876.06;5012131;28;20049;-64
2022/05/27 10:09:07;;;;;;;4.95;3.30;;;;;;;14.49;77.00;97853.84;5013325;28;20108;-65
2022/05/27 10:11:46;;;;;;;4.78;3.78;;;;;;;14.54;77.24;97852.69;5012924;28;20577;-63
2022/05/27 10:14:37;;;;;;;5.15;4.45;;;;;;;14.35;77.68;97827.88;5012992;28;20030;-63
2022/05/27 10:17:10;;;;;;;6.18;4.47;;;;;;;14.25;76.42;97829.41;4995896;28;20049;-62
2022/05/27 10:19:37;;;;;;;6.50;4.90;;;;;;;14.51;78.43;97879.78;5013390;28;20022;-62
2022/05/27 10:22:08;;;;;;;4.72;4.22;;;;;;;14.31;78.24;97878.50;5013046;28;20738;-62
2022/05/27 10:25:00;;;;;;;5.93;4.88;;;;;;;14.19;78.76;97879.31;5012266;28;20383;-65
2022/05/27 10:27:37;;;;;;;4.80;3.77;;;;;;;13.54;79.38;97837.47;5004969;28;20053;-63
2022/05/27 10:30:08;;;;;;;7.15;4.10;;;;;;;14.02;80.44;97906.44;5013117;28;20029;-64
2022/05/27 10:32:36;;;;;;;4.22;3.60;;;;;;;14.06;80.85;97881.88;5012750;28;20482;-63
2022/05/27 10:35:28;;;;;;;5.72;3.40;;;;;;;13.72;81.03;97830.22;5012713;28;20046;-63
2022/05/27 10:37:56;;;;;;;6.32;3.80;;;;;;;13.91;81.22;97881.94;5002375;28;20125;-63
2022/05/27 10:40:39;;;;;;;3.10;2.60;;;;;;;13.91;81.38;97900.16;5011754;28;20372;-62
2022/05/27 10:43:17;;;;;;;7.40;3.30;;;;;;;13.63;83.67;97904.47;5012809;28;20475;-60
2022/05/27 10:45:47;;;;;;;5.53;3.05;;;;;;;13.20;83.38;97829.16;5012684;28;20050;-60
2022/05/27 10:48:18;;;;;;;4.57;2.90;;;;;;;13.45;83.68;97900.44;5012688;28;20093;-63
2022/05/27 10:51:07;;;;;;;4.80;2.50;;;;;;;13.34;82.96;97902.84;5012580;28;20057;-62
2022/05/27 10:53:41;;;;;;;4.47;2.38;;;;;;;13.07;83.13;97843.84;5012690;28;20030;-62
2022/05/27 10:56:29;;;;;;;3.67;2.08;;;;;;;13.12;82.66;97847.81;5012682;28;20030;-62
2022/05/27 11:02:14;;;;;;;5.32;2.80;;;;;;;13.71;83.21;97874.56;5012650;28;20037;-63
2022/05/27 11:05:17;;;;;;;3.22;2.28;;;;;;;13.77;82.89;97882.81;4999825;28;20042;-61
2022/05/27 11:08:25;;;;;;;2.35;2.10;;;;;;;13.70;83.35;97845.13;5011147;28;20399;-61
2022/05/27 11:11:20;;;;;;;3.42;2.55;;;;;;;14.18;82.32;97904.50;5011421;28;20034;-62
2022/05/27 11:17:28;;;;;;;5.18;2.78;;;;;;;13.94;81.44;97862.69;5010663;28;20026;-62
2022/05/27 11:20:24;;;;;;;2.53;1.60;;;;;;;14.00;77.12;97922.16;5012510;28;20117;-63
2022/05/27 11:23:30;;;;;;;1.83;1.65;;;;;;;14.20;76.63;97925.25;5012124;28;20121;-63
2022/05/27 11:26:22;;;;;;;1.45;1.35;;;;;;;13.90;77.31;97906.28;5005423;28;20038;-64
2022/05/27 11:29:06;;;;;;;1.67;1.48;;;;;;;14.17;77.16;97926.25;5016235;28;20112;-64
2022/05/27 11:32:30;;;;;;;1.90;1.52;;;;;;;14.05;76.91;97914.88;5016341;28;20414;-62
2022/05/27 11:35:15;;;;;;;1.60;1.48;;;;;;;14.18;77.03;97925.34;4949948;29;20039;-64
2022/05/27 11:37:55;;;;;;;2.33;1.80;;;;;;;14.23;76.95;97925.84;5030346;28;20483;-63
2022/05/27 11:40:47;;;;;;;6.00;4.78;;;;;;;14.27;75.86;97914.31;5030870;28;20402;-64
2022/05/27 11:43:24;;;;;;;2.30;1.90;;;;;;;14.22;74.93;97918.16;5007556;28;20096;-64
2022/05/27 11:46:05;;;;;;;1.75;1.65;;;;;;;14.26;74.18;97915.25;5015788;28;20501;-64
2022/05/27 11:48:52;;;;;;;2.47;1.88;;;;;;;14.05;78.82;97906.22;5015702;28;20029;-63
2022/05/27 11:51:20;;;;;;;5.05;1.70;;;;;;;14.35;76.88;97918.19;5016156;28;20049;-64
2022/05/27 11:53:49;;;;;;;2.45;1.77;;;;;;;14.49;76.07;97923.31;5015491;28;20113;-64
2022/05/27 11:56:21;;;;;;;2.85;1.90;;;;;;;14.46;73.33;97918.31;5015818;28;20030;-64
2022/05/27 11:59:04;;;;;;;3.40;2.13;;;;;;;14.52;74.30;97915.28;5015526;28;20073;-64
2022/05/27 12:01:43;;;;;;;3.13;1.98;;;;;;;14.00;73.80;97851.88;5016015;28;20044;-63
2022/05/27 12:04:30;;;;;;;3.63;1.60;;;;;;;14.30;73.28;97914.09;5015192;28;20053;-64
2022/05/27 12:07:18;;;;;;;5.82;1.95;;;;;;;14.17;74.45;97875.97;5015422;28;20046;-64
2022/05/27 12:09:47;;;;;;;2.80;1.75;;;;;;;14.43;73.45;97923.72;5014466;28;20124;-61
2022/05/27 12:12:28;;;;;;;3.45;2.40;;;;;;;13.91;76.40;97863.72;5015548;28;20042;-61
2022/05/27 12:14:57;;;;;;;2.22;1.95;;;;;;;14.26;76.54;97927.44;5014984;28;20463;-61
2022/05/27 12:17:37;;;;;;;4.20;2.50;;;;;;;14.31;76.32;97935.78;5014202;28;20542;-63
2022/05/27 12:20:03;;;;;;;4.47;2.25;;;;;;;14.18;75.35;97927.94;5014905;28;20483;-63
2022/05/27 12:22:35;;;;;;;2.58;1.80;;;;;;;13.98;75.72;97871.97;5015427;28;20049;-63
2022/05/27 12:25:07;;;;;;;4.70;2.30;;;;;;;14.32;76.96;97933.09;5015246;28;20033;-64
2022/05/27 12:27:34;;;;;;;5.45;2.38;;;;;;;14.30;77.90;97940.16;5012908;28;20430;-63
2022/05/27 12:30:01;;;;;;;4.47;2.15;;;;;;;14.19;78.79;97941.78;5014965;28;20029;-62
2022/05/27 12:32:29;;;;;;;6.75;3.00;;;;;;;14.15;78.59;97949.78;5015218;28;20104;-61